sensor_id;sensor_type;location;lat;lon;timestamp;temperature;humidity
68276;DHT22;55106;51.438;-0.098;2022-07-29T00:01:48;16.67;73.98
68276;DHT22;55106;51.438;-0.098;2022-07-29T00:04:14;16.65;74.11
68276;DHT22;55106;51.438;-0.098;2022-07-29T00:06:39;16.69;74.11
68276;DHT22;55106;51.438;-0.098;2022-07-29T00:09:05;16.68;74.16
68276;DHT22;55106;51.438;-0.098;2022-07-29T00:11:30;16.67;74.16
68276;DHT22;55106;51.438;-0.098;2022-07-29T00:13:56;16.67;74.27
68276;DHT22;55106;51.438;-0.098;2022-07-29T00:16:22;16.68;74.27
68276;DHT22;55106;51.438;-0.098;2022-07-29T00:18:48;16.68;74.44
68276;DHT22;55106;51.438;-0.098;2022-07-29T00:21:13;16.67;74.48
68276;DHT22;55106;51.438;-0.098;2022-07-29T00:23:39;16.65;74.57
68276;DHT22;55106;51.438;-0.098;2022-07-29T00:26:04;16.67;74.55
68276;DHT22;55106;51.438;-0.098;2022-07-29T00:28:29;16.64;74.62
68276;DHT22;55106;51.438;-0.098;2022-07-29T00:30:55;16.64;74.71
68276;DHT22;55106;51.438;-0.098;2022-07-29T00:33:20;16.62;74.81
68276;DHT22;55106;51.438;-0.098;2022-07-29T00:35:47;16.64;74.85
68276;DHT22;55106;51.438;-0.098;2022-07-29T00:38:17;16.59;74.92
68276;DHT22;55106;51.438;-0.098;2022-07-29T00:40:43;16.58;75.01
68276;DHT22;55106;51.438;-0.098;2022-07-29T00:43:10;16.59;75.03
68276;DHT22;55106;51.438;-0.098;2022-07-29T00:45:36;16.61;75.03
68276;DHT22;55106;51.438;-0.098;2022-07-29T00:48:03;16.57;75.08
68276;DHT22;55106;51.438;-0.098;2022-07-29T00:50:30;16.58;75.04
68276;DHT22;55106;51.438;-0.098;2022-07-29T00:52:56;16.54;75.25
68276;DHT22;55106;51.438;-0.098;2022-07-29T00:55:22;16.54;75.32
68276;DHT22;55106;51.438;-0.098;2022-07-29T00:57:47;16.54;75.42
68276;DHT22;55106;51.438;-0.098;2022-07-29T01:00:23;16.54;75.57
68276;DHT22;55106;51.438;-0.098;2022-07-29T01:02:48;16.54;75.61
68276;DHT22;55106;51.438;-0.098;2022-07-29T01:05:16;16.51;75.71
68276;DHT22;55106;51.438;-0.098;2022-07-29T01:07:42;16.50;75.78
68276;DHT22;55106;51.438;-0.098;2022-07-29T01:10:09;16.48;75.82
68276;DHT22;55106;51.438;-0.098;2022-07-29T01:12:37;16.48;75.91
68276;DHT22;55106;51.438;-0.098;2022-07-29T01:15:05;16.47;76.03
68276;DHT22;55106;51.438;-0.098;2022-07-29T01:29:00;16.42;76.29
68276;DHT22;55106;51.438;-0.098;2022-07-29T01:31:45;16.41;76.30
68276;DHT22;55106;51.438;-0.098;2022-07-29T01:37:21;16.41;76.44
68276;DHT22;55106;51.438;-0.098;2022-07-29T01:39:49;16.42;76.38
68276;DHT22;55106;51.438;-0.098;2022-07-29T01:42:36;16.42;76.35
68276;DHT22;55106;51.438;-0.098;2022-07-29T01:45:23;16.38;76.46
68276;DHT22;55106;51.438;-0.098;2022-07-29T01:48:10;16.38;76.59
68276;DHT22;55106;51.438;-0.098;2022-07-29T01:50:46;16.35;76.71
68276;DHT22;55106;51.438;-0.098;2022-07-29T01:53:14;16.30;76.93
68276;DHT22;55106;51.438;-0.098;2022-07-29T01:55:44;16.28;76.97
68276;DHT22;55106;51.438;-0.098;2022-07-29T01:58:10;16.25;77.05
68276;DHT22;55106;51.438;-0.098;2022-07-29T02:00:37;16.21;77.36
68276;DHT22;55106;51.438;-0.098;2022-07-29T02:03:08;16.21;77.27
68276;DHT22;55106;51.438;-0.098;2022-07-29T02:05:35;16.18;77.39
68276;DHT22;55106;51.438;-0.098;2022-07-29T02:08:02;16.14;77.55
68276;DHT22;55106;51.438;-0.098;2022-07-29T02:10:29;16.07;77.79
68276;DHT22;55106;51.438;-0.098;2022-07-29T02:12:56;16.02;78.03
68276;DHT22;55106;51.438;-0.098;2022-07-29T02:15:24;16.02;78.08
68276;DHT22;55106;51.438;-0.098;2022-07-29T02:17:55;15.97;78.20
68276;DHT22;55106;51.438;-0.098;2022-07-29T02:20:22;15.94;78.33
68276;DHT22;55106;51.438;-0.098;2022-07-29T02:22:51;15.87;78.50
68276;DHT22;55106;51.438;-0.098;2022-07-29T02:25:18;15.81;78.73
68276;DHT22;55106;51.438;-0.098;2022-07-29T02:27:45;15.75;78.96
68276;DHT22;55106;51.438;-0.098;2022-07-29T02:30:12;15.69;79.10
68276;DHT22;55106;51.438;-0.098;2022-07-29T02:32:40;15.63;79.12
68276;DHT22;55106;51.438;-0.098;2022-07-29T02:35:08;15.54;79.57
68276;DHT22;55106;51.438;-0.098;2022-07-29T02:37:35;15.41;79.84
68276;DHT22;55106;51.438;-0.098;2022-07-29T02:40:02;15.44;80.02
68276;DHT22;55106;51.438;-0.098;2022-07-29T02:42:28;15.32;80.32
68276;DHT22;55106;51.438;-0.098;2022-07-29T02:44:54;15.27;80.46
68276;DHT22;55106;51.438;-0.098;2022-07-29T02:47:40;15.23;80.65
68276;DHT22;55106;51.438;-0.098;2022-07-29T02:50:13;15.15;80.87
68276;DHT22;55106;51.438;-0.098;2022-07-29T02:53:02;15.07;81.28
68276;DHT22;55106;51.438;-0.098;2022-07-29T02:55:37;15.01;81.44
68276;DHT22;55106;51.438;-0.098;2022-07-29T03:00:55;14.75;82.15
68276;DHT22;55106;51.438;-0.098;2022-07-29T03:03:22;14.63;82.62
68276;DHT22;55106;51.438;-0.098;2022-07-29T03:05:54;14.53;82.79
68276;DHT22;55106;51.438;-0.098;2022-07-29T03:08:20;14.50;82.95
68276;DHT22;55106;51.438;-0.098;2022-07-29T03:10:46;14.42;83.24
68276;DHT22;55106;51.438;-0.098;2022-07-29T03:13:12;14.31;83.53
68276;DHT22;55106;51.438;-0.098;2022-07-29T03:15:38;14.28;83.65
68276;DHT22;55106;51.438;-0.098;2022-07-29T03:18:05;14.22;83.72
68276;DHT22;55106;51.438;-0.098;2022-07-29T03:20:31;14.15;83.98
68276;DHT22;55106;51.438;-0.098;2022-07-29T03:22:56;14.08;84.32
68276;DHT22;55106;51.438;-0.098;2022-07-29T03:25:22;14.01;84.51
68276;DHT22;55106;51.438;-0.098;2022-07-29T03:27:48;13.97;84.76
68276;DHT22;55106;51.438;-0.098;2022-07-29T03:30:14;13.92;85.04
68276;DHT22;55106;51.438;-0.098;2022-07-29T03:32:41;13.90;85.02
68276;DHT22;55106;51.438;-0.098;2022-07-29T03:35:07;13.90;84.99
68276;DHT22;55106;51.438;-0.098;2022-07-29T03:37:33;13.85;85.13
68276;DHT22;55106;51.438;-0.098;2022-07-29T03:40:00;13.78;85.18
68276;DHT22;55106;51.438;-0.098;2022-07-29T03:42:29;13.73;85.18
68276;DHT22;55106;51.438;-0.098;2022-07-29T03:44:57;13.69;85.49
68276;DHT22;55106;51.438;-0.098;2022-07-29T03:47:25;13.69;85.45
68276;DHT22;55106;51.438;-0.098;2022-07-29T03:49:54;13.60;85.42
68276;DHT22;55106;51.438;-0.098;2022-07-29T03:52:22;13.56;85.28
68276;DHT22;55106;51.438;-0.098;2022-07-29T03:54:48;13.57;85.56
68276;DHT22;55106;51.438;-0.098;2022-07-29T03:57:15;13.50;85.82
68276;DHT22;55106;51.438;-0.098;2022-07-29T03:59:41;13.49;85.73
68276;DHT22;55106;51.438;-0.098;2022-07-29T04:02:09;13.44;85.99
68276;DHT22;55106;51.438;-0.098;2022-07-29T04:04:36;13.43;85.95
68276;DHT22;55106;51.438;-0.098;2022-07-29T04:07:03;13.40;85.81
68276;DHT22;55106;51.438;-0.098;2022-07-29T04:09:28;13.40;86.05
68276;DHT22;55106;51.438;-0.098;2022-07-29T04:11:54;13.35;86.22
68276;DHT22;55106;51.438;-0.098;2022-07-29T04:14:19;13.32;86.52
68276;DHT22;55106;51.438;-0.098;2022-07-29T04:16:45;13.33;86.42
68276;DHT22;55106;51.438;-0.098;2022-07-29T04:19:11;13.32;86.64
68276;DHT22;55106;51.438;-0.098;2022-07-29T04:21:40;13.36;86.69
68276;DHT22;55106;51.438;-0.098;2022-07-29T04:24:06;13.42;86.52
68276;DHT22;55106;51.438;-0.098;2022-07-29T04:26:33;13.44;86.23
68276;DHT22;55106;51.438;-0.098;2022-07-29T04:28:58;13.50;86.11
68276;DHT22;55106;51.438;-0.098;2022-07-29T04:31:24;13.56;86.14
68276;DHT22;55106;51.438;-0.098;2022-07-29T04:33:49;13.57;85.89
68276;DHT22;55106;51.438;-0.098;2022-07-29T04:36:15;13.63;85.78
68276;DHT22;55106;51.438;-0.098;2022-07-29T04:38:40;13.63;85.69
68276;DHT22;55106;51.438;-0.098;2022-07-29T04:41:06;13.66;85.61
68276;DHT22;55106;51.438;-0.098;2022-07-29T04:43:37;13.70;85.41
68276;DHT22;55106;51.438;-0.098;2022-07-29T04:46:03;13.73;85.33
68276;DHT22;55106;51.438;-0.098;2022-07-29T04:48:29;13.70;85.15
68276;DHT22;55106;51.438;-0.098;2022-07-29T04:50:55;13.78;85.36
68276;DHT22;55106;51.438;-0.098;2022-07-29T04:53:21;13.83;85.08
68276;DHT22;55106;51.438;-0.098;2022-07-29T04:55:46;13.90;85.02
68276;DHT22;55106;51.438;-0.098;2022-07-29T04:58:11;14.00;84.81
68276;DHT22;55106;51.438;-0.098;2022-07-29T05:00:37;14.08;84.47
68276;DHT22;55106;51.438;-0.098;2022-07-29T05:03:03;14.24;84.02
68276;DHT22;55106;51.438;-0.098;2022-07-29T05:05:28;14.33;83.93
68276;DHT22;55106;51.438;-0.098;2022-07-29T05:07:54;14.46;83.68
68276;DHT22;55106;51.438;-0.098;2022-07-29T05:10:20;14.62;83.20
68276;DHT22;55106;51.438;-0.098;2022-07-29T05:12:45;14.83;82.64
68276;DHT22;55106;51.438;-0.098;2022-07-29T05:15:11;15.04;81.71
68276;DHT22;55106;51.438;-0.098;2022-07-29T05:17:36;15.24;81.07
68276;DHT22;55106;51.438;-0.098;2022-07-29T05:20:03;15.44;80.62
68276;DHT22;55106;51.438;-0.098;2022-07-29T05:22:28;15.56;80.29
68276;DHT22;55106;51.438;-0.098;2022-07-29T05:24:53;15.73;79.94
68276;DHT22;55106;51.438;-0.098;2022-07-29T05:27:19;15.96;79.21
68276;DHT22;55106;51.438;-0.098;2022-07-29T05:29:44;16.20;78.39
68276;DHT22;55106;51.438;-0.098;2022-07-29T05:32:10;16.48;77.65
68276;DHT22;55106;51.438;-0.098;2022-07-29T05:34:35;16.69;77.00
68276;DHT22;55106;51.438;-0.098;2022-07-29T05:37:01;16.98;76.09
68276;DHT22;55106;51.438;-0.098;2022-07-29T05:39:26;17.12;75.52
68276;DHT22;55106;51.438;-0.098;2022-07-29T05:41:52;17.37;75.00
68276;DHT22;55106;51.438;-0.098;2022-07-29T05:44:17;17.50;74.42
68276;DHT22;55106;51.438;-0.098;2022-07-29T05:46:43;17.64;74.00
68276;DHT22;55106;51.438;-0.098;2022-07-29T05:49:08;17.67;73.31
68276;DHT22;55106;51.438;-0.098;2022-07-29T05:51:34;17.78;73.29
68276;DHT22;55106;51.438;-0.098;2022-07-29T05:53:59;17.68;73.71
68276;DHT22;55106;51.438;-0.098;2022-07-29T05:56:25;17.78;73.78
68276;DHT22;55106;51.438;-0.098;2022-07-29T05:58:51;17.74;73.73
68276;DHT22;55106;51.438;-0.098;2022-07-29T06:01:17;17.70;74.33
68276;DHT22;55106;51.438;-0.098;2022-07-29T06:03:42;17.82;73.89
68276;DHT22;55106;51.438;-0.098;2022-07-29T06:06:08;18.13;73.30
68276;DHT22;55106;51.438;-0.098;2022-07-29T06:08:34;18.30;72.62
68276;DHT22;55106;51.438;-0.098;2022-07-29T06:11:00;18.36;72.43
68276;DHT22;55106;51.438;-0.098;2022-07-29T06:13:26;18.46;72.15
68276;DHT22;55106;51.438;-0.098;2022-07-29T06:15:51;18.64;71.95
68276;DHT22;55106;51.438;-0.098;2022-07-29T06:18:16;18.77;71.65
68276;DHT22;55106;51.438;-0.098;2022-07-29T06:20:42;18.81;71.83
68276;DHT22;55106;51.438;-0.098;2022-07-29T06:23:08;18.95;71.92
68276;DHT22;55106;51.438;-0.098;2022-07-29T06:25:35;19.20;71.22
68276;DHT22;55106;51.438;-0.098;2022-07-29T06:28:02;19.14;71.64
68276;DHT22;55106;51.438;-0.098;2022-07-29T06:30:28;19.22;71.50
68276;DHT22;55106;51.438;-0.098;2022-07-29T06:32:54;19.12;71.97
68276;DHT22;55106;51.438;-0.098;2022-07-29T06:35:20;18.89;72.55
68276;DHT22;55106;51.438;-0.098;2022-07-29T06:37:46;18.74;72.77
68276;DHT22;55106;51.438;-0.098;2022-07-29T06:40:12;18.60;73.21
68276;DHT22;55106;51.438;-0.098;2022-07-29T06:42:56;18.65;73.08
68276;DHT22;55106;51.438;-0.098;2022-07-29T06:45:21;18.81;72.89
68276;DHT22;55106;51.438;-0.098;2022-07-29T06:47:47;19.07;72.15
68276;DHT22;55106;51.438;-0.098;2022-07-29T06:50:13;19.22;71.81
68276;DHT22;55106;51.438;-0.098;2022-07-29T06:52:39;19.43;71.16
68276;DHT22;55106;51.438;-0.098;2022-07-29T06:55:06;19.55;70.85
68276;DHT22;55106;51.438;-0.098;2022-07-29T06:57:33;20.05;69.44
68276;DHT22;55106;51.438;-0.098;2022-07-29T06:59:58;20.76;67.27
68276;DHT22;55106;51.438;-0.098;2022-07-29T07:02:24;20.57;67.53
68276;DHT22;55106;51.438;-0.098;2022-07-29T07:04:49;20.03;69.26
68276;DHT22;55106;51.438;-0.098;2022-07-29T07:07:15;19.98;69.32
68276;DHT22;55106;51.438;-0.098;2022-07-29T07:09:40;19.94;69.46
68276;DHT22;55106;51.438;-0.098;2022-07-29T07:12:06;19.71;70.08
68276;DHT22;55106;51.438;-0.098;2022-07-29T07:14:31;19.76;70.08
68276;DHT22;55106;51.438;-0.098;2022-07-29T07:16:57;19.73;70.27
68276;DHT22;55106;51.438;-0.098;2022-07-29T07:19:22;19.80;69.96
68276;DHT22;55106;51.438;-0.098;2022-07-29T07:21:48;19.83;69.86
68276;DHT22;55106;51.438;-0.098;2022-07-29T07:24:13;19.70;70.45
68276;DHT22;55106;51.438;-0.098;2022-07-29T07:26:39;21.00;67.36
68276;DHT22;55106;51.438;-0.098;2022-07-29T07:29:05;22.58;62.66
68276;DHT22;55106;51.438;-0.098;2022-07-29T07:31:31;23.45;59.38
68276;DHT22;55106;51.438;-0.098;2022-07-29T07:33:56;23.68;58.19
68276;DHT22;55106;51.438;-0.098;2022-07-29T07:36:22;24.19;57.35
68276;DHT22;55106;51.438;-0.098;2022-07-29T07:38:48;24.09;57.35
68276;DHT22;55106;51.438;-0.098;2022-07-29T07:41:14;24.76;56.22
68276;DHT22;55106;51.438;-0.098;2022-07-29T07:43:40;25.67;53.94
68276;DHT22;55106;51.438;-0.098;2022-07-29T07:46:05;25.96;52.31
68276;DHT22;55106;51.438;-0.098;2022-07-29T07:48:31;26.45;51.55
68276;DHT22;55106;51.438;-0.098;2022-07-29T07:50:56;26.40;50.78
68276;DHT22;55106;51.438;-0.098;2022-07-29T07:53:21;26.85;50.48
68276;DHT22;55106;51.438;-0.098;2022-07-29T07:55:47;26.67;50.00
68276;DHT22;55106;51.438;-0.098;2022-07-29T07:58:12;27.55;47.79
68276;DHT22;55106;51.438;-0.098;2022-07-29T08:00:38;27.82;47.21
68276;DHT22;55106;51.438;-0.098;2022-07-29T08:03:04;27.98;46.00
68276;DHT22;55106;51.438;-0.098;2022-07-29T08:05:29;27.88;46.69
68276;DHT22;55106;51.438;-0.098;2022-07-29T08:07:55;27.82;45.88
68276;DHT22;55106;51.438;-0.098;2022-07-29T08:10:20;27.23;46.76
68276;DHT22;55106;51.438;-0.098;2022-07-29T08:13:06;26.76;46.31
68276;DHT22;55106;51.438;-0.098;2022-07-29T08:15:31;27.14;45.54
68276;DHT22;55106;51.438;-0.098;2022-07-29T08:17:57;27.04;46.29
68276;DHT22;55106;51.438;-0.098;2022-07-29T08:20:24;27.30;45.18
68276;DHT22;55106;51.438;-0.098;2022-07-29T08:22:50;27.43;43.95
68276;DHT22;55106;51.438;-0.098;2022-07-29T08:25:15;27.57;40.32
68276;DHT22;55106;51.438;-0.098;2022-07-29T08:27:43;27.95;42.00
68276;DHT22;55106;51.438;-0.098;2022-07-29T08:30:08;28.04;39.91
68276;DHT22;55106;51.438;-0.098;2022-07-29T08:32:35;29.02;39.14
68276;DHT22;55106;51.438;-0.098;2022-07-29T08:35:00;28.95;37.35
68276;DHT22;55106;51.438;-0.098;2022-07-29T08:37:26;28.94;38.66
68276;DHT22;55106;51.438;-0.098;2022-07-29T08:39:51;29.15;38.93
68276;DHT22;55106;51.438;-0.098;2022-07-29T08:42:17;29.70;34.94
68276;DHT22;55106;51.438;-0.098;2022-07-29T08:44:42;30.46;36.39
68276;DHT22;55106;51.438;-0.098;2022-07-29T08:47:07;29.98;38.72
68276;DHT22;55106;51.438;-0.098;2022-07-29T08:49:34;29.98;36.77
68276;DHT22;55106;51.438;-0.098;2022-07-29T08:52:01;30.13;35.34
68276;DHT22;55106;51.438;-0.098;2022-07-29T08:54:27;29.14;36.86
68276;DHT22;55106;51.438;-0.098;2022-07-29T08:56:53;29.96;34.56
68276;DHT22;55106;51.438;-0.098;2022-07-29T08:59:20;29.91;37.53
68276;DHT22;55106;51.438;-0.098;2022-07-29T09:01:48;30.78;35.57
68276;DHT22;55106;51.438;-0.098;2022-07-29T09:04:14;30.63;35.92
68276;DHT22;55106;51.438;-0.098;2022-07-29T09:06:43;30.51;37.44
68276;DHT22;55106;51.438;-0.098;2022-07-29T09:09:10;31.00;35.23
68276;DHT22;55106;51.438;-0.098;2022-07-29T09:11:36;30.84;35.63
68276;DHT22;55106;51.438;-0.098;2022-07-29T09:14:02;31.62;34.85
68276;DHT22;55106;51.438;-0.098;2022-07-29T09:16:44;31.14;34.44
68276;DHT22;55106;51.438;-0.098;2022-07-29T09:19:31;31.31;35.30
68276;DHT22;55106;51.438;-0.098;2022-07-29T09:22:00;31.48;34.04
68276;DHT22;55106;51.438;-0.098;2022-07-29T09:24:46;31.02;33.28
68276;DHT22;55106;51.438;-0.098;2022-07-29T09:27:23;31.98;32.83
68276;DHT22;55106;51.438;-0.098;2022-07-29T09:29:59;31.67;33.46
68276;DHT22;55106;51.438;-0.098;2022-07-29T09:32:25;31.71;33.36
68276;DHT22;55106;51.438;-0.098;2022-07-29T09:35:29;31.65;33.81
68276;DHT22;55106;51.438;-0.098;2022-07-29T09:37:55;31.11;35.03
68276;DHT22;55106;51.438;-0.098;2022-07-29T09:40:26;31.20;34.92
68276;DHT22;55106;51.438;-0.098;2022-07-29T09:42:52;30.68;35.48
68276;DHT22;55106;51.438;-0.098;2022-07-29T09:47:51;30.94;34.59
68276;DHT22;55106;51.438;-0.098;2022-07-29T09:50:17;29.15;38.04
68276;DHT22;55106;51.438;-0.098;2022-07-29T09:52:51;30.83;34.16
68276;DHT22;55106;51.438;-0.098;2022-07-29T09:55:17;31.84;32.45
68276;DHT22;55106;51.438;-0.098;2022-07-29T09:57:45;32.88;31.43
68276;DHT22;55106;51.438;-0.098;2022-07-29T10:00:19;32.53;31.79
68276;DHT22;55106;51.438;-0.098;2022-07-29T10:02:46;32.63;31.93
68276;DHT22;55106;51.438;-0.098;2022-07-29T10:07:54;31.89;33.31
68276;DHT22;55106;51.438;-0.098;2022-07-29T10:12:50;33.69;29.60
68276;DHT22;55106;51.438;-0.098;2022-07-29T10:15:24;33.02;30.73
68276;DHT22;55106;51.438;-0.098;2022-07-29T10:17:51;32.74;30.77
68276;DHT22;55106;51.438;-0.098;2022-07-29T10:20:17;31.78;32.51
68276;DHT22;55106;51.438;-0.098;2022-07-29T10:22:43;31.67;32.64
68276;DHT22;55106;51.438;-0.098;2022-07-29T10:25:09;31.40;32.80
68276;DHT22;55106;51.438;-0.098;2022-07-29T10:27:36;32.22;31.41
68276;DHT22;55106;51.438;-0.098;2022-07-29T10:30:03;32.61;31.15
68276;DHT22;55106;51.438;-0.098;2022-07-29T10:32:58;33.23;30.51
68276;DHT22;55106;51.438;-0.098;2022-07-29T10:44:24;32.40;30.87
68276;DHT22;55106;51.438;-0.098;2022-07-29T10:46:51;32.64;30.02
68276;DHT22;55106;51.438;-0.098;2022-07-29T10:54:19;31.74;31.30
68276;DHT22;55106;51.438;-0.098;2022-07-29T10:59:46;32.50;30.73
68276;DHT22;55106;51.438;-0.098;2022-07-29T11:05:03;31.77;31.77
68276;DHT22;55106;51.438;-0.098;2022-07-29T11:07:31;31.64;31.15
68276;DHT22;55106;51.438;-0.098;2022-07-29T11:15:06;30.44;33.31
68276;DHT22;55106;51.438;-0.098;2022-07-29T11:20:43;29.32;35.36
68276;DHT22;55106;51.438;-0.098;2022-07-29T11:31:20;30.04;34.28
68276;DHT22;55106;51.438;-0.098;2022-07-29T11:33:56;30.00;34.62
68276;DHT22;55106;51.438;-0.098;2022-07-29T11:36:22;30.03;34.01
68276;DHT22;55106;51.438;-0.098;2022-07-29T11:38:48;30.42;34.11
68276;DHT22;55106;51.438;-0.098;2022-07-29T11:41:26;29.93;34.51
68276;DHT22;55106;51.438;-0.098;2022-07-29T11:43:59;29.81;35.07
68276;DHT22;55106;51.438;-0.098;2022-07-29T11:46:47;29.87;35.04
68276;DHT22;55106;51.438;-0.098;2022-07-29T11:49:21;29.67;35.00
68276;DHT22;55106;51.438;-0.098;2022-07-29T11:51:56;29.50;35.20
68276;DHT22;55106;51.438;-0.098;2022-07-29T11:54:28;30.14;34.11
68276;DHT22;55106;51.438;-0.098;2022-07-29T11:56:57;29.59;35.51
68276;DHT22;55106;51.438;-0.098;2022-07-29T11:59:23;30.21;34.02
68276;DHT22;55106;51.438;-0.098;2022-07-29T12:01:53;30.58;33.47
68276;DHT22;55106;51.438;-0.098;2022-07-29T12:04:19;30.39;33.30
68276;DHT22;55106;51.438;-0.098;2022-07-29T12:06:50;30.87;32.97
68276;DHT22;55106;51.438;-0.098;2022-07-29T12:09:15;30.69;32.85
68276;DHT22;55106;51.438;-0.098;2022-07-29T12:11:42;30.78;32.92
68276;DHT22;55106;51.438;-0.098;2022-07-29T12:14:08;30.93;32.70
68276;DHT22;55106;51.438;-0.098;2022-07-29T12:16:36;31.14;33.60
68276;DHT22;55106;51.438;-0.098;2022-07-29T12:19:29;31.68;31.92
68276;DHT22;55106;51.438;-0.098;2022-07-29T12:22:06;32.43;31.03
68276;DHT22;55106;51.438;-0.098;2022-07-29T12:24:44;30.80;32.58
68276;DHT22;55106;51.438;-0.098;2022-07-29T12:27:09;29.36;36.39
68276;DHT22;55106;51.438;-0.098;2022-07-29T12:29:35;28.57;37.75
68276;DHT22;55106;51.438;-0.098;2022-07-29T12:32:00;30.76;34.63
68276;DHT22;55106;51.438;-0.098;2022-07-29T12:34:27;30.55;34.22
68276;DHT22;55106;51.438;-0.098;2022-07-29T12:36:53;29.25;35.39
68276;DHT22;55106;51.438;-0.098;2022-07-29T12:39:19;30.08;34.35
68276;DHT22;55106;51.438;-0.098;2022-07-29T12:41:45;30.97;32.87
68276;DHT22;55106;51.438;-0.098;2022-07-29T12:44:11;31.48;32.14
68276;DHT22;55106;51.438;-0.098;2022-07-29T12:46:36;31.92;31.30
68276;DHT22;55106;51.438;-0.098;2022-07-29T12:49:02;33.01;30.03
68276;DHT22;55106;51.438;-0.098;2022-07-29T12:51:37;33.53;29.46
68276;DHT22;55106;51.438;-0.098;2022-07-29T12:54:03;31.59;31.72
68276;DHT22;55106;51.438;-0.098;2022-07-29T12:56:29;30.23;33.71
68276;DHT22;55106;51.438;-0.098;2022-07-29T12:58:54;29.04;35.51
68276;DHT22;55106;51.438;-0.098;2022-07-29T13:01:20;28.23;36.60
68276;DHT22;55106;51.438;-0.098;2022-07-29T13:03:50;27.57;37.91
68276;DHT22;55106;51.438;-0.098;2022-07-29T13:06:32;26.79;38.90
68276;DHT22;55106;51.438;-0.098;2022-07-29T13:09:06;27.07;38.40
68276;DHT22;55106;51.438;-0.098;2022-07-29T13:14:02;28.01;37.99
68276;DHT22;55106;51.438;-0.098;2022-07-29T13:16:28;28.54;37.75
68276;DHT22;55106;51.438;-0.098;2022-07-29T13:19:11;28.77;36.08
68276;DHT22;55106;51.438;-0.098;2022-07-29T13:21:38;28.40;37.42
68276;DHT22;55106;51.438;-0.098;2022-07-29T13:24:05;27.91;37.15
68276;DHT22;55106;51.438;-0.098;2022-07-29T13:26:31;28.05;37.01
68276;DHT22;55106;51.438;-0.098;2022-07-29T13:28:57;27.64;37.50
68276;DHT22;55106;51.438;-0.098;2022-07-29T13:31:23;27.43;37.99
68276;DHT22;55106;51.438;-0.098;2022-07-29T13:33:48;27.07;38.27
68276;DHT22;55106;51.438;-0.098;2022-07-29T13:36:14;26.92;38.66
68276;DHT22;55106;51.438;-0.098;2022-07-29T13:38:39;26.62;39.65
68276;DHT22;55106;51.438;-0.098;2022-07-29T13:41:05;26.67;39.13
68276;DHT22;55106;51.438;-0.098;2022-07-29T13:43:30;26.76;38.71
68276;DHT22;55106;51.438;-0.098;2022-07-29T13:45:56;26.72;38.67
68276;DHT22;55106;51.438;-0.098;2022-07-29T13:48:21;26.52;38.67
68276;DHT22;55106;51.438;-0.098;2022-07-29T13:50:47;26.37;38.93
68276;DHT22;55106;51.438;-0.098;2022-07-29T13:53:13;26.23;39.42
68276;DHT22;55106;51.438;-0.098;2022-07-29T13:55:39;25.98;39.73
68276;DHT22;55106;51.438;-0.098;2022-07-29T13:58:04;25.90;39.58
68276;DHT22;55106;51.438;-0.098;2022-07-29T14:00:30;26.06;39.11
68276;DHT22;55106;51.438;-0.098;2022-07-29T14:02:56;26.10;38.92
68276;DHT22;55106;51.438;-0.098;2022-07-29T14:05:22;26.08;39.71
68276;DHT22;55106;51.438;-0.098;2022-07-29T14:07:47;26.20;38.92
68276;DHT22;55106;51.438;-0.098;2022-07-29T14:10:21;26.14;39.19
68276;DHT22;55106;51.438;-0.098;2022-07-29T14:12:47;26.20;39.16
68276;DHT22;55106;51.438;-0.098;2022-07-29T14:15:12;26.06;39.32
68276;DHT22;55106;51.438;-0.098;2022-07-29T14:17:38;25.90;40.76
68276;DHT22;55106;51.438;-0.098;2022-07-29T14:20:04;25.82;40.78
68276;DHT22;55106;51.438;-0.098;2022-07-29T14:22:29;26.13;41.01
68276;DHT22;55106;51.438;-0.098;2022-07-29T14:24:55;26.45;40.95
68276;DHT22;55106;51.438;-0.098;2022-07-29T14:27:20;26.67;40.39
68276;DHT22;55106;51.438;-0.098;2022-07-29T14:29:46;26.56;40.48
68276;DHT22;55106;51.438;-0.098;2022-07-29T14:32:11;26.30;38.91
68276;DHT22;55106;51.438;-0.098;2022-07-29T14:34:37;26.40;39.01
68276;DHT22;55106;51.438;-0.098;2022-07-29T14:37:03;26.76;39.16
68276;DHT22;55106;51.438;-0.098;2022-07-29T14:39:30;26.85;39.41
68276;DHT22;55106;51.438;-0.098;2022-07-29T14:41:56;26.95;38.98
68276;DHT22;55106;51.438;-0.098;2022-07-29T14:44:21;27.03;38.94
68276;DHT22;55106;51.438;-0.098;2022-07-29T14:46:47;27.23;38.95
68276;DHT22;55106;51.438;-0.098;2022-07-29T14:49:12;27.23;39.20
68276;DHT22;55106;51.438;-0.098;2022-07-29T14:51:38;27.26;39.86
68276;DHT22;55106;51.438;-0.098;2022-07-29T14:54:03;27.10;37.78
68276;DHT22;55106;51.438;-0.098;2022-07-29T14:56:28;26.85;37.85
68276;DHT22;55106;51.438;-0.098;2022-07-29T14:58:58;26.20;38.75
68276;DHT22;55106;51.438;-0.098;2022-07-29T15:01:23;26.18;39.12
68276;DHT22;55106;51.438;-0.098;2022-07-29T15:03:50;26.24;38.99
68276;DHT22;55106;51.438;-0.098;2022-07-29T15:06:15;26.20;39.03
68276;DHT22;55106;51.438;-0.098;2022-07-29T15:08:41;26.21;38.77
68276;DHT22;55106;51.438;-0.098;2022-07-29T15:11:06;26.13;38.97
68276;DHT22;55106;51.438;-0.098;2022-07-29T15:13:33;26.12;39.10
68276;DHT22;55106;51.438;-0.098;2022-07-29T15:15:58;26.14;39.32
68276;DHT22;55106;51.438;-0.098;2022-07-29T15:18:24;26.07;39.38
68276;DHT22;55106;51.438;-0.098;2022-07-29T15:20:49;25.96;39.22
68276;DHT22;55106;51.438;-0.098;2022-07-29T15:23:14;25.83;39.60
68276;DHT22;55106;51.438;-0.098;2022-07-29T15:25:40;25.82;39.65
68276;DHT22;55106;51.438;-0.098;2022-07-29T15:28:05;25.87;39.14
68276;DHT22;55106;51.438;-0.098;2022-07-29T15:30:35;26.07;39.07
68276;DHT22;55106;51.438;-0.098;2022-07-29T15:33:09;26.25;38.71
68276;DHT22;55106;51.438;-0.098;2022-07-29T15:35:36;26.34;38.79
68276;DHT22;55106;51.438;-0.098;2022-07-29T15:38:02;26.52;39.11
68276;DHT22;55106;51.438;-0.098;2022-07-29T15:40:28;26.52;38.32
68276;DHT22;55106;51.438;-0.098;2022-07-29T15:42:53;26.55;38.41
68276;DHT22;55106;51.438;-0.098;2022-07-29T15:45:19;26.71;38.49
68276;DHT22;55106;51.438;-0.098;2022-07-29T15:47:45;26.73;39.47
68276;DHT22;55106;51.438;-0.098;2022-07-29T15:50:10;26.72;39.62
68276;DHT22;55106;51.438;-0.098;2022-07-29T15:52:40;26.75;38.07
68276;DHT22;55106;51.438;-0.098;2022-07-29T15:55:06;26.67;37.69
68276;DHT22;55106;51.438;-0.098;2022-07-29T15:57:32;26.52;37.98
68276;DHT22;55106;51.438;-0.098;2022-07-29T15:59:58;26.23;38.18
68276;DHT22;55106;51.438;-0.098;2022-07-29T16:02:24;26.17;38.34
68276;DHT22;55106;51.438;-0.098;2022-07-29T16:04:49;26.06;38.89
68276;DHT22;55106;51.438;-0.098;2022-07-29T16:07:15;26.03;38.82
68276;DHT22;55106;51.438;-0.098;2022-07-29T16:09:42;25.96;39.21
68276;DHT22;55106;51.438;-0.098;2022-07-29T16:12:07;25.94;39.97
68276;DHT22;55106;51.438;-0.098;2022-07-29T16:14:33;25.92;39.90
68276;DHT22;55106;51.438;-0.098;2022-07-29T16:16:58;25.98;39.63
68276;DHT22;55106;51.438;-0.098;2022-07-29T16:19:27;26.18;38.55
68276;DHT22;55106;51.438;-0.098;2022-07-29T16:21:53;26.18;38.52